createdAt,value
2022-11-08T00:00:07.533Z,6.80
2022-11-08T00:02:55.562Z,6.40
2022-11-08T00:05:42.452Z,6.00
2022-11-08T00:08:29.223Z,6.70
2022-11-08T00:11:22.482Z,7.00
2022-11-08T00:14:03.087Z,6.00
2022-11-08T00:16:31.124Z,6.40
2022-11-08T00:18:59.302Z,7.50
2022-11-08T00:21:27.759Z,5.60
2022-11-08T00:23:55.638Z,6.40
2022-11-08T00:26:23.722Z,6.10
2022-11-08T00:28:51.630Z,6.00
2022-11-08T00:31:19.661Z,6.00
2022-11-08T00:33:48.034Z,6.80
2022-11-08T00:36:16.208Z,6.30
2022-11-08T00:38:44.440Z,5.80
2022-11-08T00:41:13.325Z,5.90
2022-11-08T00:43:41.508Z,6.30
2022-11-08T00:46:09.910Z,5.90
2022-11-08T00:48:38.308Z,6.00
2022-11-08T00:51:10.972Z,5.20
2022-11-08T00:53:40.413Z,5.60
2022-11-08T00:56:13.534Z,5.30
2022-11-08T00:58:44.317Z,5.70
2022-11-08T01:01:16.418Z,6.40
2022-11-08T01:03:45.289Z,5.90
2022-11-08T01:06:18.696Z,5.20
2022-11-08T01:08:49.996Z,5.50
2022-11-08T01:11:29.508Z,5.90
2022-11-08T01:14:05.056Z,5.10
2022-11-08T01:16:37.298Z,6.30
2022-11-08T01:19:05.555Z,5.50
2022-11-08T01:21:33.616Z,5.60
2022-11-08T01:24:01.587Z,5.90
2022-11-08T01:26:29.968Z,5.70
2022-11-08T01:28:58.972Z,5.00
2022-11-08T01:31:30.710Z,5.00
2022-11-08T01:34:00.967Z,5.20
2022-11-08T01:36:29.785Z,5.50
2022-11-08T01:38:58.357Z,5.60
2022-11-08T01:41:27.948Z,5.30
2022-11-08T01:43:58.691Z,5.20
2022-11-08T01:46:46.925Z,5.70
2022-11-08T01:49:36.279Z,5.60
2022-11-08T01:52:23.488Z,5.00
2022-11-08T01:55:23.214Z,6.30
2022-11-08T01:58:07.975Z,5.60
2022-11-08T02:00:39.524Z,5.20
2022-11-08T02:03:15.395Z,4.90
2022-11-08T02:05:43.329Z,4.80
2022-11-08T02:08:33.239Z,5.20
2022-11-08T02:11:02.725Z,5.60
2022-11-08T02:13:33.918Z,5.20
2022-11-08T02:16:02.269Z,5.70
2022-11-08T02:18:32.541Z,5.30
2022-11-08T02:21:13.977Z,6.10
2022-11-08T02:23:58.580Z,5.80
2022-11-08T02:26:33.263Z,5.70
2022-11-08T02:29:35.534Z,5.20
2022-11-08T02:32:05.573Z,5.90
2022-11-08T02:34:50.215Z,6.10
2022-11-08T02:37:22.331Z,5.90
2022-11-08T02:39:50.324Z,5.90
2022-11-08T02:42:21.040Z,7.10
2022-11-08T02:44:49.336Z,5.60
2022-11-08T02:47:18.797Z,5.90
2022-11-08T02:49:47.756Z,6.10
2022-11-08T02:52:16.344Z,5.50
2022-11-08T02:54:44.321Z,6.40
2022-11-08T02:57:12.262Z,6.10
2022-11-08T02:59:40.658Z,5.90
2022-11-08T03:02:08.759Z,6.70
2022-11-08T03:04:36.791Z,6.20
2022-11-08T03:07:05.496Z,5.70
2022-11-08T03:09:33.413Z,6.90
2022-11-08T03:12:01.426Z,6.50
2022-11-08T03:14:29.508Z,5.90
2022-11-08T03:16:57.674Z,5.90
2022-11-08T03:19:25.557Z,5.70
2022-11-08T03:21:53.521Z,6.50
2022-11-08T03:24:21.443Z,6.40
2022-11-08T03:26:49.441Z,6.20
2022-11-08T03:29:17.525Z,6.00
2022-11-08T03:31:45.685Z,5.80
2022-11-08T03:34:14.194Z,7.00
2022-11-08T03:36:42.349Z,6.10
2022-11-08T03:39:11.754Z,6.10
2022-11-08T03:41:39.941Z,5.80
2022-11-08T03:44:08.095Z,6.30
2022-11-08T03:46:36.174Z,6.10
2022-11-08T03:49:04.156Z,6.00
2022-11-08T03:51:32.077Z,6.20
2022-11-08T03:53:59.930Z,6.10
2022-11-08T03:56:28.253Z,5.90
2022-11-08T03:58:56.425Z,6.40
2022-11-08T04:01:24.471Z,6.10
2022-11-08T04:03:52.541Z,7.40
2022-11-08T04:06:20.563Z,6.00
2022-11-08T04:08:48.719Z,5.90
2022-11-08T04:11:35.618Z,5.90
2022-11-08T04:14:22.339Z,6.50
2022-11-08T04:16:50.352Z,5.90
2022-11-08T04:19:37.222Z,6.70
2022-11-08T04:22:07.608Z,6.40
2022-11-08T04:24:35.732Z,5.60
2022-11-08T04:27:04.175Z,6.70
2022-11-08T04:29:32.682Z,6.60
2022-11-08T04:32:00.532Z,5.30
2022-11-08T04:34:28.436Z,6.10
2022-11-08T04:36:56.496Z,6.20
2022-11-08T04:39:24.565Z,6.00
2022-11-08T04:41:55.398Z,6.30
2022-11-08T04:44:25.864Z,5.80
2022-11-08T04:46:53.790Z,7.40
2022-11-08T04:49:21.772Z,6.80
2022-11-08T04:51:50.046Z,6.30
2022-11-08T04:54:18.079Z,5.70
2022-11-08T04:56:45.921Z,7.30
2022-11-08T04:59:13.951Z,6.60
2022-11-08T05:01:42.230Z,7.10
2022-11-08T05:04:10.610Z,6.50
2022-11-08T05:06:38.576Z,6.60
2022-11-08T05:09:06.642Z,6.40
2022-11-08T05:11:34.613Z,5.70
2022-11-08T05:14:02.690Z,6.80
2022-11-08T05:16:32.783Z,6.50
2022-11-08T05:19:01.246Z,6.40
2022-11-08T05:21:49.567Z,6.20
2022-11-08T05:24:18.624Z,6.40
2022-11-08T05:26:48.853Z,5.70
2022-11-08T05:29:17.526Z,6.10
2022-11-08T05:31:45.918Z,6.70
2022-11-08T05:34:13.883Z,6.60
2022-11-08T05:36:41.960Z,6.10
2022-11-08T05:39:10.150Z,5.70
2022-11-08T05:41:38.314Z,6.80
2022-11-08T05:44:06.892Z,6.30
2022-11-08T05:46:35.478Z,6.20
2022-11-08T05:49:03.757Z,7.00
2022-11-08T05:51:32.656Z,6.00
2022-11-08T05:54:00.516Z,5.00
2022-11-08T05:56:28.391Z,6.50
2022-11-08T05:58:56.655Z,5.90
2022-11-08T06:01:24.963Z,6.00
2022-11-08T06:03:53.210Z,5.80
2022-11-08T06:06:23.081Z,5.90
2022-11-08T06:08:52.001Z,6.20
2022-11-08T06:11:27.735Z,5.60
2022-11-08T06:13:56.642Z,5.70
2022-11-08T06:16:25.397Z,6.30
2022-11-08T06:18:53.751Z,5.70
2022-11-08T06:21:22.381Z,6.30
2022-11-08T06:23:54.818Z,5.80
2022-11-08T06:26:24.583Z,5.70
2022-11-08T06:28:52.829Z,6.40
2022-11-08T06:31:20.821Z,6.80
2022-11-08T06:33:49.422Z,6.40
2022-11-08T06:36:17.433Z,6.30
2022-11-08T06:38:45.409Z,5.90
2022-11-08T06:41:20.163Z,6.10
2022-11-08T06:43:49.294Z,6.60
2022-11-08T06:46:17.270Z,5.60
2022-11-08T06:48:46.728Z,6.20
2022-11-08T06:51:16.132Z,5.80
2022-11-08T06:53:45.064Z,6.70
2022-11-08T06:56:13.483Z,5.90
2022-11-08T06:58:42.166Z,8.00
2022-11-08T07:01:11.726Z,6.30
2022-11-08T07:03:40.214Z,5.60
2022-11-08T07:06:08.749Z,5.90
2022-11-08T07:08:37.009Z,5.70
2022-11-08T07:11:05.562Z,6.80
2022-11-08T07:13:33.834Z,7.30
2022-11-08T07:16:02.817Z,6.10
2022-11-08T07:18:31.466Z,6.70
2022-11-08T07:21:02.373Z,5.00
2022-11-08T07:23:30.774Z,6.60
2022-11-08T07:26:08.981Z,5.90
2022-11-08T07:28:37.005Z,6.00
2022-11-08T07:31:05.673Z,5.50
2022-11-08T07:33:34.587Z,6.20
2022-11-08T07:36:04.400Z,5.80
2022-11-08T07:38:32.480Z,6.20
2022-11-08T07:41:02.372Z,5.40
2022-11-08T07:43:30.882Z,6.50
2022-11-08T07:46:17.881Z,6.50
2022-11-08T07:48:46.165Z,5.70
2022-11-08T07:51:14.330Z,6.80
2022-11-08T07:53:44.919Z,6.40
2022-11-08T07:56:13.141Z,6.10
2022-11-08T07:58:41.024Z,6.20
2022-11-08T08:01:09.513Z,7.30
2022-11-08T08:03:37.767Z,6.10
2022-11-08T08:06:05.943Z,6.80
2022-11-08T08:08:33.798Z,5.40
2022-11-08T08:11:03.301Z,5.60
2022-11-08T08:13:31.821Z,5.60
2022-11-08T08:16:02.757Z,6.00
2022-11-08T08:18:30.895Z,6.60
2022-11-08T08:20:59.727Z,6.90
2022-11-08T08:23:28.281Z,6.40
2022-11-08T08:25:56.664Z,6.50
2022-11-08T08:28:24.624Z,5.30
2022-11-08T08:30:52.813Z,5.80
2022-11-08T08:33:29.474Z,6.00
2022-11-08T08:36:01.046Z,5.40
2022-11-08T08:38:32.306Z,5.60
2022-11-08T08:41:02.517Z,6.40
2022-11-08T08:43:32.741Z,6.10
2022-11-08T08:46:03.634Z,5.90
2022-11-08T08:48:33.788Z,6.10
2022-11-08T08:51:01.965Z,6.10
2022-11-08T08:53:30.131Z,5.90
2022-11-08T08:55:58.096Z,6.00
2022-11-08T08:58:26.166Z,5.70
2022-11-08T09:03:42.690Z,5.50
2022-11-08T09:06:10.888Z,5.60
2022-11-08T09:08:39.037Z,5.50
2022-11-08T09:11:06.997Z,5.60
2022-11-08T09:13:35.597Z,5.90
2022-11-08T09:16:03.770Z,5.60
2022-11-08T09:18:32.814Z,6.20
2022-11-08T09:21:03.487Z,4.70
2022-11-08T09:23:32.182Z,4.90
2022-11-08T09:26:03.315Z,5.70
2022-11-08T09:28:36.395Z,5.40
2022-11-08T09:31:09.184Z,5.10
2022-11-08T09:33:39.508Z,5.10
2022-11-08T09:36:12.312Z,6.80
2022-11-08T09:38:42.156Z,6.10
2022-11-08T09:41:19.165Z,5.60
2022-11-08T09:43:56.795Z,6.00
2022-11-08T09:46:47.679Z,11.90
2022-11-08T09:49:36.086Z,7.00
2022-11-08T09:52:06.256Z,10.60
2022-11-08T09:54:47.135Z,9.20
2022-11-08T09:57:30.472Z,7.70
2022-11-08T10:00:07.526Z,7.40
2022-11-08T10:02:37.059Z,8.90
2022-11-08T10:05:12.831Z,12.40
2022-11-08T10:08:26.966Z,9.00
2022-11-08T10:11:02.111Z,8.30
2022-11-08T10:13:55.978Z,8.40
2022-11-08T10:16:48.422Z,8.30
2022-11-08T10:19:51.756Z,8.20
2022-11-08T10:22:44.060Z,7.30
2022-11-08T10:25:30.768Z,8.20
2022-11-08T10:28:02.296Z,7.10
2022-11-08T10:30:39.394Z,7.10
2022-11-08T10:33:23.642Z,8.40
2022-11-08T10:36:18.302Z,8.50
2022-11-08T10:39:23.009Z,7.30
2022-11-08T10:42:25.458Z,7.20
2022-11-08T10:44:54.228Z,5.90
2022-11-08T10:47:27.702Z,6.60
2022-11-08T10:50:02.528Z,8.10
2022-11-08T10:52:42.304Z,6.40
2022-11-08T10:55:30.733Z,6.60
2022-11-08T10:57:58.704Z,6.00
2022-11-08T11:00:33.527Z,7.90
2022-11-08T11:06:04.561Z,5.80
2022-11-08T11:08:33.984Z,6.90
2022-11-08T11:11:36.827Z,7.10
2022-11-08T11:14:22.103Z,6.00
2022-11-08T11:17:11.739Z,5.80
2022-11-08T11:19:45.525Z,6.60
2022-11-08T11:22:15.239Z,6.50
2022-11-08T11:24:53.189Z,6.50
2022-11-08T11:27:33.868Z,7.70
2022-11-08T11:30:31.275Z,7.50
2022-11-08T11:33:04.875Z,6.10
2022-11-08T11:36:07.027Z,6.50
2022-11-08T11:38:47.702Z,6.40
2022-11-08T11:41:25.014Z,5.90
2022-11-08T11:44:22.257Z,6.30
2022-11-08T11:47:21.494Z,6.20
2022-11-08T11:49:53.781Z,6.30
2022-11-08T11:52:21.809Z,5.40
2022-11-08T11:54:50.846Z,6.50
2022-11-08T11:57:52.610Z,5.90
2022-11-08T12:00:20.945Z,6.10
2022-11-08T12:03:44.666Z,7.20
2022-11-08T12:06:25.619Z,5.70
2022-11-08T12:09:31.289Z,5.20
2022-11-08T12:12:11.417Z,5.20
2022-11-08T12:15:04.911Z,4.90
2022-11-08T12:18:01.249Z,5.60
2022-11-08T12:20:58.575Z,6.00
2022-11-08T12:23:57.482Z,5.50
2022-11-08T12:26:40.425Z,4.90
2022-11-08T12:29:30.623Z,6.30
2022-11-08T12:32:14.145Z,5.30
2022-11-08T12:35:29.521Z,5.40
2022-11-08T12:38:37.507Z,5.10
2022-11-08T12:41:28.959Z,5.30
2022-11-08T12:44:35.345Z,5.50
2022-11-08T12:47:33.829Z,6.20
2022-11-08T12:50:25.037Z,5.70
2022-11-08T12:53:56.737Z,5.40
2022-11-08T12:56:41.412Z,5.90
2022-11-08T12:59:37.105Z,5.30
2022-11-08T13:02:17.939Z,5.10
2022-11-08T13:04:56.272Z,5.00
2022-11-08T13:07:36.601Z,5.00
2022-11-08T13:10:39.299Z,5.10
2022-11-08T13:13:49.148Z,5.10
2022-11-08T13:16:21.241Z,5.00
2022-11-08T13:18:50.616Z,5.80
2022-11-08T13:21:30.514Z,5.40
2022-11-08T13:24:06.671Z,5.50
2022-11-08T13:26:43.445Z,5.60
2022-11-08T13:37:52.983Z,6.00
2022-11-08T13:44:54.591Z,5.30
2022-11-08T13:51:24.897Z,5.40
2022-11-08T13:54:21.181Z,5.70
2022-11-08T13:58:12.479Z,5.90
2022-11-08T14:01:10.912Z,4.60
2022-11-08T14:16:03.096Z,5.10
2022-11-08T14:18:50.110Z,4.40
2022-11-08T14:21:20.574Z,5.20
2022-11-08T14:23:51.138Z,4.70
2022-11-08T14:26:25.439Z,5.20
2022-11-08T14:28:54.176Z,6.30
2022-11-08T14:31:33.754Z,5.50
2022-11-08T14:34:02.801Z,4.50
2022-11-08T14:36:32.523Z,5.10
2022-11-08T14:39:19.410Z,5.90
2022-11-08T14:41:53.435Z,4.40
2022-11-08T14:44:23.711Z,4.40
2022-11-08T14:46:53.180Z,4.40
2022-11-08T14:49:30.861Z,4.20
2022-11-08T14:52:13.056Z,5.60
2022-11-08T14:54:46.136Z,5.50
2022-11-08T14:57:35.910Z,4.40
2022-11-08T15:00:13.538Z,5.00
2022-11-08T15:02:47.537Z,5.00
2022-11-08T15:05:45.223Z,4.10
2022-11-08T15:08:38.377Z,4.90
2022-11-08T15:11:11.308Z,4.30
2022-11-08T15:13:50.645Z,5.50
2022-11-08T15:16:18.875Z,5.40
2022-11-08T15:18:47.161Z,5.20
2022-11-08T15:21:29.646Z,4.00
2022-11-08T15:24:13.642Z,4.70
2022-11-08T15:27:05.947Z,4.80
2022-11-08T15:29:58.730Z,5.10
2022-11-08T15:32:28.817Z,5.10
2022-11-08T15:34:58.639Z,4.70
2022-11-08T15:37:39.887Z,4.90
2022-11-08T15:40:21.385Z,5.10
2022-11-08T15:42:53.324Z,3.80
2022-11-08T15:45:26.635Z,5.40
2022-11-08T15:48:22.415Z,5.20
2022-11-08T15:50:50.804Z,4.30
2022-11-08T15:53:20.347Z,4.80
2022-11-08T15:56:02.770Z,5.00
2022-11-08T15:58:34.988Z,4.70
2022-11-08T16:01:05.270Z,4.90
2022-11-08T16:03:34.827Z,4.90
2022-11-08T16:06:02.953Z,5.10
2022-11-08T16:08:31.021Z,5.80
2022-11-08T16:11:01.364Z,5.30
2022-11-08T16:13:35.061Z,5.20
2022-11-08T16:16:11.691Z,5.40
2022-11-08T16:18:41.176Z,5.20
2022-11-08T16:21:41.354Z,5.30
2022-11-08T16:24:34.815Z,6.10
2022-11-08T16:27:02.965Z,5.00
2022-11-08T16:29:32.701Z,5.90
2022-11-08T16:32:01.285Z,5.30
2022-11-08T16:34:29.523Z,6.40
2022-11-08T16:36:57.734Z,6.00
2022-11-08T16:43:39.932Z,5.30
2022-11-08T16:46:46.337Z,5.80
2022-11-08T16:49:26.854Z,5.50
2022-11-08T16:51:54.993Z,6.10
2022-11-08T16:54:28.805Z,5.30
2022-11-08T16:57:28.556Z,6.50
2022-11-08T16:59:49.377Z,7.10
2022-11-08T17:02:32.770Z,5.30
2022-11-08T17:05:01.847Z,7.00
2022-11-08T17:07:30.200Z,6.50
2022-11-08T17:09:58.360Z,6.00
2022-11-08T17:12:26.757Z,5.20
2022-11-08T17:14:56.362Z,7.70
2022-11-08T17:17:24.882Z,6.40
2022-11-08T17:19:55.067Z,6.80
2022-11-08T17:22:24.204Z,6.10
2022-11-08T17:24:53.875Z,7.10
2022-11-08T17:27:23.606Z,5.40
2022-11-08T17:29:52.274Z,5.10
2022-11-08T17:32:20.646Z,6.20
2022-11-08T17:34:49.378Z,7.70
2022-11-08T17:37:18.224Z,6.60
2022-11-08T17:39:46.659Z,6.30
2022-11-08T17:42:14.881Z,5.10
2022-11-08T17:44:42.943Z,5.50
2022-11-08T17:47:10.890Z,5.30
2022-11-08T17:49:42.947Z,6.40
2022-11-08T17:52:12.081Z,6.30
2022-11-08T17:54:41.516Z,6.20
2022-11-08T17:57:10.382Z,6.30
2022-11-08T17:59:38.658Z,7.30
2022-11-08T18:02:08.073Z,6.50
2022-11-08T18:04:36.749Z,7.10
2022-11-08T18:07:05.164Z,6.90
2022-11-08T18:09:33.940Z,6.90
2022-11-08T18:12:01.987Z,6.40
2022-11-08T18:14:30.059Z,6.00
2022-11-08T18:16:58.344Z,5.80
2022-11-08T18:19:26.816Z,6.80
2022-11-08T18:21:54.765Z,6.40
2022-11-08T18:24:22.873Z,5.80
2022-11-08T18:26:51.034Z,7.30
2022-11-08T18:29:19.100Z,6.70
2022-11-08T18:31:47.382Z,6.40
2022-11-08T18:34:15.456Z,5.40
2022-11-08T18:36:43.726Z,5.70
2022-11-08T18:39:16.653Z,6.40
2022-11-08T18:41:46.944Z,5.40
2022-11-08T18:44:15.426Z,6.70
2022-11-08T18:46:43.830Z,7.20
2022-11-08T18:49:13.916Z,5.70
2022-11-08T18:51:42.711Z,7.10
2022-11-08T18:54:11.473Z,6.50
2022-11-08T18:56:39.668Z,6.50
2022-11-08T18:59:09.294Z,5.40
2022-11-08T19:01:37.632Z,6.80
2022-11-08T19:04:06.240Z,5.70
2022-11-08T19:06:35.120Z,6.30
2022-11-08T19:09:04.765Z,5.60
2022-11-08T19:11:33.019Z,6.50
2022-11-08T19:14:02.530Z,5.80
2022-11-08T19:16:31.468Z,6.20
2022-11-08T19:19:00.104Z,6.70
2022-11-08T19:21:29.098Z,6.10
2022-11-08T19:23:59.798Z,6.40
2022-11-08T19:26:29.563Z,6.50
2022-11-08T19:28:58.425Z,6.40
2022-11-08T19:31:27.333Z,6.40
2022-11-08T19:33:56.515Z,6.70
2022-11-08T19:36:27.942Z,6.20
2022-11-08T19:38:58.248Z,6.00
2022-11-08T19:41:29.164Z,7.60
2022-11-08T19:43:57.713Z,5.80
2022-11-08T19:46:34.901Z,6.90
2022-11-08T19:49:05.236Z,6.70
2022-11-08T19:51:35.342Z,7.00
2022-11-08T19:54:08.039Z,6.30
2022-11-08T19:57:03.100Z,7.00
2022-11-08T19:59:25.476Z,6.60
2022-11-08T20:01:53.599Z,6.00
2022-11-08T20:04:22.118Z,8.50
2022-11-08T20:06:50.047Z,7.30
2022-11-08T20:09:18.263Z,7.00
2022-11-08T20:11:46.341Z,6.10
2022-11-08T20:14:14.729Z,6.60
2022-11-08T20:16:47.856Z,6.10
2022-11-08T20:19:19.360Z,6.70
2022-11-08T20:21:47.513Z,7.00
2022-11-08T20:24:16.365Z,6.70
2022-11-08T20:26:45.313Z,6.50
2022-11-08T20:29:14.904Z,6.80
2022-11-08T20:31:43.312Z,6.50
2022-11-08T20:34:13.151Z,7.10
2022-11-08T20:36:41.931Z,7.70
2022-11-08T20:39:15.095Z,8.10
2022-11-08T20:41:44.159Z,7.40
2022-11-08T20:44:12.470Z,8.00
2022-11-08T20:46:40.847Z,7.00
2022-11-08T20:49:09.955Z,6.80
2022-11-08T20:51:38.203Z,7.70
2022-11-08T20:54:06.384Z,8.70
2022-11-08T20:56:34.567Z,7.60
2022-11-08T20:59:03.238Z,8.90
2022-11-08T21:01:33.126Z,7.20
2022-11-08T21:04:02.365Z,7.30
2022-11-08T21:06:35.588Z,7.30
2022-11-08T21:09:32.599Z,8.00
2022-11-08T21:11:54.845Z,8.60
2022-11-08T21:14:24.779Z,8.50
2022-11-08T21:17:20.275Z,8.30
2022-11-08T21:19:41.796Z,7.10
2022-11-08T21:22:16.219Z,8.20
2022-11-08T21:24:47.724Z,7.70
2022-11-08T21:27:17.388Z,7.70
2022-11-08T21:29:45.451Z,8.30
2022-11-08T21:32:13.626Z,8.10
2022-11-08T21:34:46.178Z,7.70
2022-11-08T21:37:15.199Z,8.30
2022-11-08T21:39:43.159Z,8.00
2022-11-08T21:42:11.131Z,8.10
2022-11-08T21:44:39.202Z,7.40
2022-11-08T21:47:07.152Z,7.40
2022-11-08T21:49:35.083Z,8.50
2022-11-08T21:52:03.839Z,8.80
2022-11-08T21:54:31.752Z,7.00
2022-11-08T21:56:59.781Z,9.80
2022-11-08T21:59:27.668Z,8.80
2022-11-08T22:01:55.794Z,7.50
2022-11-08T22:04:23.777Z,7.50
2022-11-08T22:06:52.084Z,8.50
2022-11-08T22:09:20.486Z,9.30
2022-11-08T22:11:48.726Z,9.90
2022-11-08T22:14:16.894Z,7.90
2022-11-08T22:16:45.085Z,7.60
2022-11-08T22:19:14.156Z,8.80
2022-11-08T22:21:44.375Z,8.80
2022-11-08T22:24:20.541Z,8.40
2022-11-08T22:26:52.004Z,8.40
2022-11-08T22:29:20.251Z,9.30
2022-11-08T22:31:48.648Z,10.80
2022-11-08T22:34:17.134Z,9.00
2022-11-08T22:36:46.119Z,8.50
2022-11-08T22:39:21.116Z,8.60
2022-11-08T22:41:52.544Z,9.00
2022-11-08T22:44:20.580Z,7.60
2022-11-08T22:46:49.584Z,8.60
2022-11-08T22:49:17.641Z,8.50
2022-11-08T22:51:46.226Z,8.80
2022-11-08T22:54:14.379Z,8.70
2022-11-08T22:56:42.431Z,8.60
2022-11-08T22:59:10.445Z,8.50
2022-11-08T23:01:38.772Z,8.30
2022-11-08T23:04:06.940Z,8.00
2022-11-08T23:06:34.866Z,9.20
2022-11-08T23:09:03.222Z,8.90
2022-11-08T23:11:50.291Z,7.70
2022-11-08T23:14:51.066Z,9.40
2022-11-08T23:17:18.957Z,8.30
2022-11-08T23:20:05.878Z,9.20
2022-11-08T23:22:52.767Z,9.60
2022-11-08T23:25:20.967Z,9.50
2022-11-08T23:28:07.879Z,8.80
2022-11-08T23:30:54.697Z,8.90
2022-11-08T23:33:22.803Z,8.90
2022-11-08T23:36:11.624Z,8.50
2022-11-08T23:38:39.568Z,8.80
2022-11-08T23:41:27.397Z,8.60
2022-11-08T23:44:14.266Z,8.00
2022-11-08T23:46:42.309Z,9.30
2022-11-08T23:49:10.173Z,8.60
2022-11-08T23:51:38.454Z,9.10
2022-11-08T23:54:06.427Z,9.00
2022-11-08T23:56:37.209Z,7.90
2022-11-08T23:59:05.221Z,8.90
